Time;durP1;ratioP1;P1;durP2;ratioP2;P2;SDS_P1;SDS_P2;PMS_P1;PMS_P2;Temp;Humidity;BMP_temperature;BMP_pressure;BME280_temperature;BME280_humidity;BME280_pressure;Samples;Min_cycle;Max_cycle;Signal;HPM_P1;HPM_P2
2023/08/15 00:02:04;;;;;;;10.17;9.20;;;;;18.70;97303.00;;;;5049200;28;20604;-67
2023/08/15 00:04:54;;;;;;;11.27;10.10;;;;;18.30;97295.00;;;;5049829;28;20634;-65
2023/08/15 00:07:43;;;;;;;10.73;9.63;;;;;18.20;97290.00;;;;5049255;28;20212;-67
2023/08/15 00:10:32;;;;;;;13.20;9.63;;;;;17.80;97295.00;;;;5046503;28;20197;-67
2023/08/15 00:13:21;;;;;;;10.53;9.53;;;;;18.20;97299.00;;;;5042667;28;20201;-67
2023/08/15 00:16:10;;;;;;;11.30;10.20;;;;;18.30;97292.00;;;;5050062;28;20212;-67
2023/08/15 00:18:59;;;;;;;11.63;9.33;;;;;18.30;97293.00;;;;5051053;28;20295;-67
2023/08/15 00:21:50;;;;;;;10.50;9.50;;;;;18.10;97286.00;;;;5049095;28;20703;-67
2023/08/15 00:24:39;;;;;;;9.93;8.90;;;;;17.80;97275.00;;;;5045014;28;20208;-67
2023/08/15 00:27:28;;;;;;;10.43;9.43;;;;;17.80;97277.00;;;;5050078;28;20603;-67
2023/08/15 00:30:17;;;;;;;13.83;10.00;;;;;18.20;97275.00;;;;5043890;28;20204;-67
2023/08/15 00:33:06;;;;;;;11.35;10.27;;;;;17.90;97284.00;;;;5047923;28;20393;-66
2023/08/15 00:35:55;;;;;;;11.00;9.93;;;;;18.00;97277.00;;;;5049454;28;20216;-67
2023/08/15 00:38:45;;;;;;;11.90;9.77;;;;;17.60;97284.00;;;;5049613;28;20607;-66
2023/08/15 00:41:34;;;;;;;11.40;10.30;;;;;17.70;97277.00;;;;5049768;28;20672;-67
2023/08/15 00:44:23;;;;;;;11.20;10.07;;;;;18.00;97276.00;;;;5050379;28;20201;-66
2023/08/15 00:47:13;;;;;;;9.60;8.67;;;;;18.20;97265.00;;;;5041677;28;20209;-67
2023/08/15 00:50:03;;;;;;;11.37;10.27;;;;;18.20;97268.00;;;;5050092;28;20197;-67
2023/08/15 00:52:52;;;;;;;10.53;9.30;;;;;18.30;97258.00;;;;5046879;28;20239;-67
2023/08/15 00:55:43;;;;;;;9.90;8.83;;;;;18.00;97261.00;;;;5045231;28;20200;-67
2023/08/15 00:58:32;;;;;;;11.33;9.40;;;;;17.70;97256.00;;;;5049854;28;20687;-67
2023/08/15 01:01:24;;;;;;;10.30;8.83;;;;;17.30;97248.00;;;;5048628;28;20212;-67
2023/08/15 01:04:14;;;;;;;11.43;10.33;;;;;17.40;97247.00;;;;5049275;28;20230;-66
2023/08/15 01:07:03;;;;;;;12.53;10.00;;;;;17.70;97261.00;;;;5049447;28;20204;-67
2023/08/15 01:09:52;;;;;;;10.77;9.77;;;;;18.00;97244.00;;;;5048509;28;20216;-67
2023/08/15 01:13:01;;;;;;;11.07;9.97;;;;;18.00;97253.00;;;;5048386;28;20220;-66
2023/08/15 01:15:53;;;;;;;12.30;10.83;;;;;17.80;97252.00;;;;5046932;28;20687;-66
2023/08/15 01:18:46;;;;;;;9.83;8.93;;;;;17.80;97263.00;;;;5048364;28;20228;-67
2023/08/15 01:21:39;;;;;;;10.80;9.80;;;;;17.50;97253.00;;;;5049077;28;20224;-67
2023/08/15 01:24:30;;;;;;;10.50;9.53;;;;;17.40;97249.00;;;;5043630;28;20196;-67
2023/08/15 01:27:19;;;;;;;11.60;9.83;;;;;17.80;97252.00;;;;5042713;28;20603;-66
2023/08/15 01:30:09;;;;;;;12.83;10.30;;;;;17.90;97245.00;;;;5050363;28;20206;-66
2023/08/15 01:33:04;;;;;;;14.03;9.73;;;;;17.90;97248.00;;;;5046510;28;20233;-66
2023/08/15 01:35:59;;;;;;;12.37;10.13;;;;;17.80;97236.00;;;;5047829;28;20204;-66
2023/08/15 01:38:51;;;;;;;10.73;9.73;;;;;17.60;97232.00;;;;5049481;28;20228;-66
2023/08/15 01:41:43;;;;;;;11.17;10.13;;;;;17.50;97226.00;;;;5047756;28;20221;-67
2023/08/15 01:44:32;;;;;;;10.17;9.17;;;;;17.50;97230.00;;;;5044896;28;20652;-66
2023/08/15 01:47:22;;;;;;;11.23;10.03;;;;;17.40;97224.00;;;;5048100;28;20212;-67
2023/08/15 01:50:11;;;;;;;16.60;10.33;;;;;17.10;97219.00;;;;5049551;28;20205;-67
2023/08/15 01:53:00;;;;;;;10.40;9.27;;;;;17.20;97217.00;;;;5046244;28;20599;-68
2023/08/15 01:55:49;;;;;;;11.33;9.87;;;;;17.20;97219.00;;;;5045355;28;20760;-67
2023/08/15 01:58:39;;;;;;;10.90;9.73;;;;;17.20;97218.00;;;;5049197;28;20251;-66
2023/08/15 02:01:28;;;;;;;10.10;9.10;;;;;17.10;97220.00;;;;5046443;28;20216;-67
2023/08/15 02:04:17;;;;;;;11.30;10.20;;;;;16.90;97222.00;;;;5047915;28;20196;-66
2023/08/15 02:07:06;;;;;;;12.43;10.30;;;;;17.10;97214.00;;;;5046565;28;20200;-67
2023/08/15 02:09:55;;;;;;;11.60;10.50;;;;;17.30;97207.00;;;;5046030;28;20732;-65
2023/08/15 02:12:44;;;;;;;14.20;10.37;;;;;17.50;97210.00;;;;5048924;28;20622;-67
2023/08/15 02:15:34;;;;;;;12.00;10.43;;;;;17.40;97205.00;;;;5043640;28;20202;-66
2023/08/15 02:18:24;;;;;;;11.90;10.70;;;;;17.70;97214.00;;;;5041516;28;20258;-66
2023/08/15 02:21:13;;;;;;;10.90;9.90;;;;;17.70;97211.00;;;;5049529;28;20220;-67
2023/08/15 02:24:03;;;;;;;10.67;8.97;;;;;17.40;97204.00;;;;5045853;28;20200;-67
2023/08/15 02:26:51;;;;;;;12.90;10.10;;;;;17.10;97203.00;;;;5047574;28;20223;-66
2023/08/15 02:29:41;;;;;;;11.27;9.87;;;;;17.10;97206.00;;;;5045711;28;20223;-67
2023/08/15 02:32:31;;;;;;;10.13;9.13;;;;;16.80;97202.00;;;;5065694;22;20765;-64
2023/08/15 02:35:20;;;;;;;11.00;10.00;;;;;16.70;97206.00;;;;5033998;28;20196;-65
2023/08/15 02:38:09;;;;;;;11.03;9.80;;;;;16.60;97204.00;;;;5047712;28;20197;-65
2023/08/15 02:40:59;;;;;;;10.03;9.03;;;;;16.50;97204.00;;;;5046605;28;20236;-65
2023/08/15 02:43:48;;;;;;;11.27;10.27;;;;;16.30;97205.00;;;;5035799;28;20785;-65
2023/08/15 02:46:37;;;;;;;11.43;10.37;;;;;16.50;97207.00;;;;5024065;28;20209;-65
2023/08/15 02:49:28;;;;;;;12.20;10.10;;;;;16.60;97217.00;;;;5031254;28;20201;-64
2023/08/15 02:52:17;;;;;;;10.73;9.43;;;;;16.90;97206.00;;;;5021995;28;20217;-65
2023/08/15 02:55:07;;;;;;;11.43;10.33;;;;;16.80;97198.00;;;;5029403;28;20208;-65
2023/08/15 02:57:56;;;;;;;11.63;10.43;;;;;17.10;97204.00;;;;5020657;28;20209;-65
2023/08/15 03:00:45;;;;;;;11.13;10.03;;;;;17.20;97196.00;;;;5022809;28;20220;-65
2023/08/15 03:03:34;;;;;;;14.27;10.17;;;;;17.30;97198.00;;;;5026667;28;20201;-65
2023/08/15 03:06:24;;;;;;;11.03;9.80;;;;;17.00;97199.00;;;;5022053;28;20300;-66
2023/08/15 03:09:16;;;;;;;10.33;9.43;;;;;16.70;97197.00;;;;5022844;28;20197;-65
2023/08/15 03:12:06;;;;;;;11.83;10.43;;;;;16.30;97198.00;;;;5026485;28;20225;-65
2023/08/15 03:14:55;;;;;;;10.47;9.10;;;;;16.30;97202.00;;;;5025887;28;20570;-65
2023/08/15 03:17:44;;;;;;;11.00;9.77;;;;;16.70;97196.00;;;;5018745;28;20205;-66
2023/08/15 03:20:33;;;;;;;11.77;10.13;;;;;16.80;97210.00;;;;5022842;28;20247;-65
2023/08/15 03:23:23;;;;;;;11.93;10.83;;;;;16.60;97201.00;;;;5021167;28;20205;-65
2023/08/15 03:26:12;;;;;;;15.63;10.63;;;;;16.50;97200.00;;;;5033935;28;20201;-65
2023/08/15 03:29:01;;;;;;;13.97;10.67;;;;;16.80;97200.00;;;;5027543;28;20575;-65
2023/08/15 03:31:55;;;;;;;13.90;9.70;;;;;17.00;97196.00;;;;5030267;28;20248;-64
2023/08/15 03:34:44;;;;;;;12.87;10.33;;;;;16.80;97202.00;;;;5034196;28;20208;-65
2023/08/15 03:37:35;;;;;;;11.47;10.40;;;;;16.60;97194.00;;;;5023788;28;20201;-65
2023/08/15 03:40:25;;;;;;;11.10;9.83;;;;;16.30;97196.00;;;;5031623;28;20236;-65
2023/08/15 03:43:15;;;;;;;11.10;10.10;;;;;16.30;97204.00;;;;5030640;28;21177;-65
2023/08/15 03:46:05;;;;;;;12.57;10.47;;;;;16.10;97197.00;;;;5027074;28;20198;-65
2023/08/15 03:48:54;;;;;;;12.60;11.30;;;;;16.00;97207.00;;;;5040118;28;20209;-65
2023/08/15 03:51:43;;;;;;;11.90;10.63;;;;;16.30;97207.00;;;;5021833;28;20221;-65
2023/08/15 03:54:34;;;;;;;12.00;10.63;;;;;16.30;97212.00;;;;5024704;28;20262;-67
2023/08/15 03:57:24;;;;;;;11.80;10.60;;;;;16.30;97211.00;;;;5020583;28;20673;-64
2023/08/15 04:00:14;;;;;;;12.20;11.00;;;;;16.20;97202.00;;;;5031865;28;20227;-65
2023/08/15 04:03:05;;;;;;;12.23;10.93;;;;;16.10;97209.00;;;;5026148;28;20221;-65
2023/08/15 04:05:55;;;;;;;13.23;10.80;;;;;16.20;97210.00;;;;5024727;28;20209;-65
2023/08/15 04:08:45;;;;;;;12.23;10.90;;;;;16.30;97214.00;;;;5048560;28;20292;-66
2023/08/15 04:11:34;;;;;;;16.90;12.93;;;;;16.30;97219.00;;;;5050802;28;20220;-65
2023/08/15 04:14:24;;;;;;;12.63;11.43;;;;;16.60;97208.00;;;;5031967;28;20198;-65
2023/08/15 04:17:13;;;;;;;13.53;12.07;;;;;16.70;97209.00;;;;5030943;28;20221;-64
2023/08/15 04:20:03;;;;;;;13.63;11.33;;;;;16.50;97215.00;;;;5046900;28;20224;-65
2023/08/15 04:22:52;;;;;;;13.10;11.80;;;;;16.30;97214.00;;;;5038492;28;20225;-65
2023/08/15 04:25:41;;;;;;;14.43;11.13;;;;;16.50;97210.00;;;;5042601;28;20594;-65
2023/08/15 04:28:30;;;;;;;15.90;12.90;;;;;16.50;97207.00;;;;5036865;28;20213;-65
2023/08/15 04:31:20;;;;;;;13.07;11.57;;;;;16.50;97216.00;;;;5025773;28;20229;-65
2023/08/15 04:34:09;;;;;;;13.33;11.93;;;;;16.60;97219.00;;;;5033042;28;20209;-65
2023/08/15 04:36:58;;;;;;;12.67;11.53;;;;;16.60;97230.00;;;;5030163;28;20691;-65
2023/08/15 04:39:47;;;;;;;12.43;11.00;;;;;16.60;97220.00;;;;5031626;28;20209;-65
2023/08/15 04:42:36;;;;;;;12.70;9.73;;;;;16.50;97216.00;;;;5032663;28;20217;-65
2023/08/15 04:45:25;;;;;;;12.37;11.17;;;;;16.40;97219.00;;;;5037352;28;20219;-65
2023/08/15 04:48:16;;;;;;;11.70;10.47;;;;;16.40;97217.00;;;;5032739;28;20202;-64
2023/08/15 04:51:05;;;;;;;11.77;10.57;;;;;16.20;97209.00;;;;5030175;28;20577;-64
2023/08/15 04:53:54;;;;;;;11.77;10.57;;;;;16.50;97207.00;;;;5026122;28;20713;-64
2023/08/15 04:56:43;;;;;;;12.63;11.33;;;;;16.80;97214.00;;;;5026315;28;20206;-65
2023/08/15 04:59:32;;;;;;;13.17;11.77;;;;;16.80;97222.00;;;;5038769;28;20212;-64
2023/08/15 05:02:21;;;;;;;15.80;11.77;;;;;16.90;97213.00;;;;5044392;28;20249;-66
2023/08/15 05:05:12;;;;;;;11.63;10.43;;;;;16.90;97204.00;;;;5030372;28;20217;-66
2023/08/15 05:08:01;;;;;;;13.57;11.87;;;;;16.90;97209.00;;;;5018554;28;20198;-65
2023/08/15 05:10:50;;;;;;;12.43;11.23;;;;;16.70;97202.00;;;;5020387;28;20202;-65
2023/08/15 05:13:39;;;;;;;12.87;11.13;;;;;16.90;97203.00;;;;5016601;28;20202;-65
2023/08/15 05:16:29;;;;;;;12.10;10.77;;;;;17.30;97205.00;;;;5021175;28;20197;-65
2023/08/15 05:19:18;;;;;;;12.77;11.43;;;;;17.30;97215.00;;;;5018106;28;20722;-65
2023/08/15 05:22:09;;;;;;;11.30;10.27;;;;;17.30;97209.00;;;;5019040;28;20733;-66
2023/08/15 05:24:58;;;;;;;11.60;10.60;;;;;17.60;97208.00;;;;5017758;28;20206;-66
2023/08/15 05:27:47;;;;;;;11.70;10.57;;;;;17.80;97199.00;;;;5021418;28;20205;-65
2023/08/15 05:30:36;;;;;;;11.97;10.73;;;;;17.90;97207.00;;;;5014324;28;20197;-66
2023/08/15 05:33:25;;;;;;;11.07;10.07;;;;;18.10;97211.00;;;;5022191;28;20209;-65
2023/08/15 05:36:14;;;;;;;12.63;11.33;;;;;18.30;97204.00;;;;5037799;28;20576;-66
2023/08/15 05:39:05;;;;;;;10.87;9.73;;;;;18.30;97210.00;;;;5027203;28;20598;-65
2023/08/15 05:41:54;;;;;;;10.73;9.70;;;;;18.50;97211.00;;;;5023022;28;20240;-65
2023/08/15 05:44:43;;;;;;;23.27;18.73;;;;;18.50;97213.00;;;;5023065;28;20210;-65
2023/08/15 05:47:32;;;;;;;12.10;10.93;;;;;18.30;97218.00;;;;5024041;28;20228;-65
2023/08/15 05:50:21;;;;;;;11.43;10.40;;;;;18.60;97218.00;;;;5027155;28;20302;-66
2023/08/15 05:53:10;;;;;;;11.60;10.47;;;;;18.90;97209.00;;;;5029032;28;20234;-65
2023/08/15 05:56:00;;;;;;;11.67;10.43;;;;;19.20;97221.00;;;;5035934;28;20198;-65
2023/08/15 05:58:49;;;;;;;10.90;9.80;;;;;19.10;97216.00;;;;5021753;28;20224;-66
2023/08/15 06:01:38;;;;;;;13.97;10.87;;;;;19.40;97217.00;;;;5024810;28;20228;-66
2023/08/15 06:04:27;;;;;;;11.43;10.23;;;;;19.70;97218.00;;;;5018382;28;20282;-65
2023/08/15 06:07:16;;;;;;;11.80;10.67;;;;;20.20;97214.00;;;;5019868;28;20194;-65
2023/08/15 06:10:07;;;;;;;11.17;9.97;;;;;20.00;97218.00;;;;5017784;28;20208;-66
2023/08/15 06:12:57;;;;;;;11.50;9.93;;;;;20.00;97215.00;;;;5004753;28;20224;-64
2023/08/15 06:15:46;;;;;;;13.70;10.70;;;;;20.50;97214.00;;;;5004758;28;20209;-65
2023/08/15 06:18:35;;;;;;;11.60;10.43;;;;;20.40;97214.00;;;;5002655;28;20622;-65
2023/08/15 06:21:26;;;;;;;12.77;9.87;;;;;20.70;97212.00;;;;5015590;28;20237;-65
2023/08/15 06:24:15;;;;;;;13.70;10.00;;;;;21.10;97213.00;;;;5014748;28;20212;-66
2023/08/15 06:27:04;;;;;;;13.73;10.13;;;;;21.30;97218.00;;;;5011588;28;20205;-66
2023/08/15 06:29:54;;;;;;;10.03;9.03;;;;;21.20;97211.00;;;;5024155;28;20244;-66
2023/08/15 06:32:45;;;;;;;10.37;9.13;;;;;21.20;97210.00;;;;5017750;28;20240;-66
2023/08/15 06:35:34;;;;;;;11.97;9.80;;;;;21.30;97214.00;;;;5018340;28;20201;-65
2023/08/15 06:38:23;;;;;;;10.27;8.93;;;;;21.70;97207.00;;;;5017946;28;20214;-65
2023/08/15 06:41:12;;;;;;;13.40;9.83;;;;;21.90;97209.00;;;;5015101;28;20609;-64
2023/08/15 06:44:02;;;;;;;11.57;10.33;;;;;22.20;97214.00;;;;5015695;28;20205;-63
2023/08/15 06:46:52;;;;;;;12.87;9.07;;;;;22.30;97208.00;;;;5022513;28;20225;-66
2023/08/15 06:49:41;;;;;;;10.17;9.10;;;;;22.60;97212.00;;;;5022746;28;20217;-65
2023/08/15 06:52:30;;;;;;;9.57;8.33;;;;;22.80;97212.00;;;;5010827;28;20221;-65
2023/08/15 06:55:20;;;;;;;10.90;9.00;;;;;23.10;97208.00;;;;5018597;28;20197;-66
2023/08/15 06:58:09;;;;;;;12.00;8.90;;;;;23.20;97218.00;;;;5010656;28;20582;-66
2023/08/15 07:00:58;;;;;;;11.47;8.27;;;;;23.20;97212.00;;;;5015251;28;20209;-66
2023/08/15 07:03:51;;;;;;;12.07;9.30;;;;;23.60;97206.00;;;;5014687;28;20206;-65
2023/08/15 07:06:40;;;;;;;10.40;9.30;;;;;23.90;97208.00;;;;5015020;28;20206;-66
2023/08/15 07:09:29;;;;;;;9.83;8.93;;;;;24.00;97205.00;;;;5023458;28;20204;-65
2023/08/15 07:12:18;;;;;;;11.03;8.93;;;;;24.20;97211.00;;;;5017725;28;20225;-66
2023/08/15 07:15:08;;;;;;;8.70;7.90;;;;;24.30;97202.00;;;;5015464;28;20204;-65
2023/08/15 07:17:57;;;;;;;10.73;8.93;;;;;24.60;97212.00;;;;5013258;28;20204;-66
2023/08/15 07:20:48;;;;;;;11.73;8.47;;;;;24.50;97209.00;;;;5019261;28;20201;-65
2023/08/15 07:23:37;;;;;;;13.10;8.20;;;;;24.70;97207.00;;;;5013994;28;20224;-65
2023/08/15 07:26:26;;;;;;;9.37;8.07;;;;;24.90;97203.00;;;;5015280;28;20732;-65
2023/08/15 07:29:15;;;;;;;12.93;8.70;;;;;25.10;97206.00;;;;5012677;28;20206;-65
2023/08/15 07:32:06;;;;;;;11.43;8.73;;;;;25.20;97205.00;;;;5010290;28;20237;-66
2023/08/15 07:34:55;;;;;;;12.33;8.23;;;;;25.40;97198.00;;;;5006821;28;20213;-65
2023/08/15 07:37:45;;;;;;;10.07;8.90;;;;;25.60;97197.00;;;;5010455;28;20213;-66
2023/08/15 07:40:34;;;;;;;9.83;8.17;;;;;25.80;97198.00;;;;5016175;28;20201;-65
2023/08/15 07:43:23;;;;;;;9.17;7.90;;;;;26.00;97205.00;;;;5017958;28;20232;-66
2023/08/15 07:46:13;;;;;;;9.97;8.53;;;;;26.20;97205.00;;;;5019962;28;20220;-65
2023/08/15 07:49:02;;;;;;;9.70;8.20;;;;;26.30;97194.00;;;;5023078;28;20214;-66
2023/08/15 07:51:52;;;;;;;8.77;7.50;;;;;26.50;97207.00;;;;5019599;28;20237;-66
2023/08/15 07:54:44;;;;;;;9.33;7.93;;;;;26.60;97209.00;;;;5017331;28;20198;-66
2023/08/15 07:57:33;;;;;;;8.97;7.70;;;;;26.80;97209.00;;;;5015783;28;20221;-65
2023/08/15 08:00:22;;;;;;;9.70;8.20;;;;;27.00;97204.00;;;;5015332;28;20209;-66
2023/08/15 08:03:12;;;;;;;10.60;7.90;;;;;27.30;97202.00;;;;5024548;28;20260;-65
2023/08/15 08:06:01;;;;;;;9.80;7.60;;;;;27.50;97215.00;;;;5015939;28;20210;-65
2023/08/15 08:08:51;;;;;;;13.17;8.53;;;;;27.70;97209.00;;;;5020444;28;20211;-66
2023/08/15 08:11:42;;;;;;;8.60;7.10;;;;;27.80;97210.00;;;;5018250;28;20236;-66
2023/08/15 08:14:31;;;;;;;10.63;7.37;;;;;28.00;97208.00;;;;5020479;28;20226;-65
2023/08/15 08:17:22;;;;;;;7.87;6.13;;;;;28.10;97212.00;;;;5021573;28;20258;-65
2023/08/15 08:20:13;;;;;;;8.87;7.20;;;;;28.20;97212.00;;;;5021596;28;21513;-66
2023/08/15 08:23:02;;;;;;;6.97;6.23;;;;;28.20;97215.00;;;;5019710;28;20311;-66
2023/08/15 08:25:51;;;;;;;12.53;7.23;;;;;28.00;97214.00;;;;5013910;28;20253;-67
2023/08/15 08:28:41;;;;;;;6.47;5.87;;;;;28.30;97208.00;;;;5017447;28;20208;-66
2023/08/15 08:31:31;;;;;;;7.13;6.50;;;;;28.30;97211.00;;;;5026818;23;20624;-83
2023/08/15 08:34:20;;;;;;;6.53;5.87;;;;;28.20;97210.00;;;;5042899;28;20207;-83
2023/08/15 08:37:09;;;;;;;7.07;6.43;;;;;28.50;97205.00;;;;5036125;28;20243;-83
2023/08/15 08:39:58;;;;;;;7.93;6.47;;;;;29.00;97207.00;;;;5024060;28;20591;-84
2023/08/15 08:42:47;;;;;;;6.70;5.67;;;;;29.10;97204.00;;;;5023312;28;20230;-84
2023/08/15 08:45:41;;;;;;;6.73;5.63;;;;;29.30;97198.00;;;;5022493;28;20208;-84
2023/08/15 08:48:31;;;;;;;6.20;5.60;;;;;29.50;97206.00;;;;5022889;28;20200;-84
2023/08/15 08:51:21;;;;;;;6.40;5.70;;;;;29.40;97208.00;;;;5027963;28;20203;-84
2023/08/15 08:54:10;;;;;;;7.53;5.70;;;;;29.80;97206.00;;;;5011788;28;20207;-83
2023/08/15 08:57:00;;;;;;;7.27;5.73;;;;;29.90;97211.00;;;;5020147;28;20230;-84
2023/08/15 08:59:50;;;;;;;6.23;5.63;;;;;28.90;97204.00;;;;5022183;28;20291;-84
2023/08/15 09:02:40;;;;;;;6.47;5.83;;;;;29.10;97194.00;;;;5021014;28;20615;-84
2023/08/15 09:05:29;;;;;;;6.70;5.83;;;;;29.90;97195.00;;;;5015529;28;20203;-84
2023/08/15 09:08:18;;;;;;;6.53;5.93;;;;;29.90;97192.00;;;;5016747;28;20201;-84
2023/08/15 09:11:07;;;;;;;7.10;6.50;;;;;29.80;97192.00;;;;5025929;28;20674;-84
2023/08/15 09:13:56;;;;;;;6.63;6.03;;;;;30.30;97188.00;;;;5017905;28;20213;-84
2023/08/15 09:16:48;;;;;;;6.43;5.83;;;;;30.60;97192.00;;;;5013463;28;20240;-84
2023/08/15 09:19:41;;;;;;;6.33;5.83;;;;;30.80;97203.00;;;;5021553;28;20215;-84
2023/08/15 09:22:31;;;;;;;7.87;6.23;;;;;30.90;97196.00;;;;5017809;28;20323;-84
2023/08/15 09:25:20;;;;;;;7.70;6.70;;;;;31.00;97187.00;;;;5021647;28;20201;-84
2023/08/15 09:28:09;;;;;;;6.87;6.00;;;;;31.40;97188.00;;;;5023166;28;20200;-85
2023/08/15 09:31:04;;;;;;;8.00;6.83;;;;;31.20;97185.00;;;;5026944;28;20222;-85
2023/08/15 09:33:53;;;;;;;7.37;6.20;;;;;31.60;97187.00;;;;5025381;28;20672;-85
2023/08/15 09:36:43;;;;;;;7.50;6.13;;;;;30.20;97178.00;;;;5023677;28;20228;-84
2023/08/15 09:39:32;;;;;;;7.27;5.47;;;;;29.70;97174.00;;;;5028621;28;20207;-85
2023/08/15 09:42:22;;;;;;;7.43;6.03;;;;;30.80;97176.00;;;;5022161;28;20216;-84
2023/08/15 09:45:12;;;;;;;8.23;5.87;;;;;31.20;97167.00;;;;5025213;28;20231;-84
2023/08/15 09:48:01;;;;;;;6.97;6.37;;;;;31.50;97164.00;;;;5023642;28;20207;-84
2023/08/15 09:50:54;;;;;;;6.70;6.07;;;;;30.90;97175.00;;;;5024400;28;20211;-84
2023/08/15 09:53:46;;;;;;;6.70;6.00;;;;;31.70;97172.00;;;;5022301;28;20196;-84
2023/08/15 09:56:35;;;;;;;6.87;6.27;;;;;32.00;97174.00;;;;5019344;28;20712;-83
2023/08/15 09:59:24;;;;;;;8.87;6.60;;;;;32.00;97161.00;;;;5022947;28;20204;-84
2023/08/15 10:02:21;;;;;;;6.30;5.70;;;;;32.40;97167.00;;;;5025062;28;20227;-83
2023/08/15 10:05:11;;;;;;;6.67;6.07;;;;;32.40;97164.00;;;;5026735;28;20205;-84
2023/08/15 10:08:01;;;;;;;6.13;5.63;;;;;32.60;97165.00;;;;5025175;28;20215;-84
2023/08/15 10:10:53;;;;;;;7.20;6.60;;;;;32.90;97162.00;;;;5019161;28;20201;-85
2023/08/15 10:13:42;;;;;;;6.50;5.90;;;;;32.90;97161.00;;;;5022580;28;20208;-83
2023/08/15 10:16:31;;;;;;;7.40;5.75;;;;;33.10;97156.00;;;;5021428;28;20248;-83
2023/08/15 10:19:21;;;;;;;6.38;5.85;;;;;33.40;97153.00;;;;5022327;28;20205;-84
2023/08/15 10:22:10;;;;;;;6.70;6.10;;;;;32.20;97151.00;;;;5023449;28;20201;-84
2023/08/15 10:25:20;;;;;;;6.13;5.32;;;;;32.90;97154.00;;;;5022833;28;20504;-84
2023/08/15 10:28:12;;;;;;;7.00;6.25;;;;;32.50;97152.00;;;;5020127;28;20738;-84
2023/08/15 10:31:01;;;;;;;9.02;6.85;;;;;31.20;97157.00;;;;5016621;28;20214;-85
2023/08/15 10:33:50;;;;;;;6.53;5.93;;;;;32.10;97148.00;;;;5026060;28;20656;-84
2023/08/15 10:36:42;;;;;;;6.75;6.00;;;;;33.00;97149.00;;;;5027772;28;20228;-83
2023/08/15 10:39:31;;;;;;;6.60;6.00;;;;;33.00;97150.00;;;;5021769;28;20582;-84
2023/08/15 10:42:21;;;;;;;7.25;6.63;;;;;32.90;97138.00;;;;5023685;28;20572;-84
2023/08/15 10:45:15;;;;;;;7.22;6.03;;;;;34.00;97123.00;;;;5026832;28;20232;-84
2023/08/15 10:48:05;;;;;;;7.40;6.15;;;;;33.10;97131.00;;;;5024536;28;20212;-85
2023/08/15 10:50:54;;;;;;;7.88;7.07;;;;;33.50;97133.00;;;;5025275;28;20218;-84
2023/08/15 10:53:43;;;;;;;6.20;5.60;;;;;32.90;97143.00;;;;5012554;28;20209;-84
2023/08/15 10:56:33;;;;;;;7.40;5.88;;;;;32.30;97138.00;;;;5020715;28;20608;-84
2023/08/15 10:59:23;;;;;;;6.78;6.18;;;;;33.30;97134.00;;;;5026870;28;20227;-83
2023/08/15 11:02:13;;;;;;;7.47;6.78;;;;;32.40;97120.00;;;;5025403;28;20199;-86
2023/08/15 11:05:02;;;;;;;7.13;6.53;;;;;32.80;97123.00;;;;5026152;28;20313;-85
2023/08/15 11:07:51;;;;;;;6.25;5.65;;;;;34.00;97128.00;;;;5028381;28;20768;-85
2023/08/15 11:10:45;;;;;;;7.00;6.38;;;;;34.80;97123.00;;;;5021281;28;20213;-85
2023/08/15 11:13:38;;;;;;;6.28;5.65;;;31.10;86.00;33.60;97131.00;;;;5017272;28;20214;-85
2023/08/15 11:16:27;;;;;;;6.43;5.80;;;31.00;86.20;32.40;97137.00;;;;5020196;28;20712;-85
2023/08/15 11:19:17;;;;;;;7.20;5.68;;;30.60;86.10;32.00;97124.00;;;;5025698;28;20464;-85
2023/08/15 11:22:06;;;;;;;7.65;5.95;;;30.30;83.70;33.20;97126.00;;;;5025346;28;20203;-85
2023/08/15 11:24:55;;;;;;;7.35;6.47;;;30.30;84.20;32.60;97127.00;;;;5030109;28;20596;-84
2023/08/15 11:27:45;;;;;;;6.82;6.25;;;30.40;83.90;33.00;97132.00;;;;5030266;28;20727;-84
2023/08/15 11:30:35;;;;;;;8.27;6.53;;;30.40;85.20;33.50;97124.00;;;;5028329;28;20200;-84
2023/08/15 11:33:24;;;;;;;7.43;6.72;;;30.60;86.80;34.50;97126.00;;;;5025928;28;20694;-84
2023/08/15 11:36:14;;;;;;;7.03;6.03;;;31.00;86.10;34.80;97124.00;;;;5026558;28;20224;-84
2023/08/15 11:39:04;;;;;;;6.32;5.60;;;31.30;82.10;34.20;97119.00;;;;5029885;28;20208;-83
2023/08/15 11:41:53;;;;;;;7.00;6.35;;;31.40;83.40;34.90;97115.00;;;;5022726;28;20216;-83
2023/08/15 11:44:42;;;;;;;8.93;5.95;;;31.60;82.10;35.90;97114.00;;;;5022119;28;20264;-84
2023/08/15 11:47:57;;;;;;;6.78;5.80;;;32.10;82.70;35.60;97115.00;;;;5034162;28;20707;-84
2023/08/15 11:50:46;;;;;;;6.78;6.15;;;32.40;80.90;35.60;97113.00;;;;5019229;28;20657;-84
2023/08/15 11:53:37;;;;;;;6.43;5.90;;;32.50;79.60;35.90;97103.00;;;;5025476;28;20193;-84
2023/08/15 11:56:25;;;;;;;6.57;5.97;;;32.80;78.50;37.40;97104.00;;;;5029603;28;20217;-84
2023/08/15 11:59:18;;;;;;;6.45;5.95;;;33.10;79.90;37.40;97094.00;;;;5029433;28;20221;-84
2023/08/15 12:02:07;;;;;;;6.32;5.72;;;33.50;75.90;36.60;97096.00;;;;5024500;28;20204;-84
2023/08/15 12:04:56;;;;;;;6.68;5.97;;;33.60;75.90;37.60;97090.00;;;;5030232;28;20225;-84
2023/08/15 12:07:50;;;;;;;5.60;5.10;;;33.80;73.40;36.90;97098.00;;;;5029392;28;20225;-84
2023/08/15 12:10:40;;;;;;;6.55;5.95;;;34.00;74.00;37.60;97099.00;;;;5031451;28;20200;-84
2023/08/15 12:13:31;;;;;;;6.40;5.80;;;34.00;74.20;38.00;97092.00;;;;5022728;28;20671;-84
2023/08/15 12:16:20;;;;;;;6.03;5.53;;;34.20;74.10;38.40;97093.00;;;;5024632;28;20622;-85
2023/08/15 12:19:09;;;;;;;6.03;5.53;;;34.60;74.40;38.70;97092.00;;;;5019588;28;20202;-85
2023/08/15 12:21:58;;;;;;;6.70;6.10;;;34.80;72.70;38.60;97091.00;;;;5023836;28;20211;-84
2023/08/15 12:24:47;;;;;;;6.50;6.00;;;35.00;72.30;38.00;97094.00;;;;5024688;28;20232;-85
2023/08/15 12:27:38;;;;;;;5.85;5.35;;;35.00;72.90;39.00;97090.00;;;;5023874;28;20218;-85
2023/08/15 12:30:26;;;;;;;5.63;5.13;;;35.20;73.20;39.90;97081.00;;;;5020165;28;20206;-84
2023/08/15 12:33:16;;;;;;;6.38;5.88;;;35.50;74.40;40.10;97089.00;;;;5018743;28;20678;-85
2023/08/15 12:36:08;;;;;;;6.80;6.30;;;35.80;72.70;39.30;97086.00;;;;5026943;28;20432;-86
2023/08/15 12:38:57;;;;;;;5.82;5.32;;;36.10;66.40;38.50;97083.00;;;;5021403;28;20202;-86
2023/08/15 12:41:46;;;;;;;5.88;5.28;;;36.00;68.20;38.70;97089.00;;;;5024784;28;20578;-85
2023/08/15 12:44:36;;;;;;;5.30;4.90;;;35.70;68.50;39.60;97087.00;;;;5015124;28;20218;-85
2023/08/15 12:47:25;;;;;;;5.50;5.10;;;35.70;69.00;38.50;97078.00;;;;5020329;28;20222;-86
2023/08/15 12:50:14;;;;;;;6.22;5.65;;;35.90;65.90;38.80;97087.00;;;;5021559;28;20198;-84
2023/08/15 12:53:03;;;;;;;6.75;5.70;;;35.70;65.50;38.70;97072.00;;;;5021326;28;20217;-84
2023/08/15 12:55:52;;;;;;;6.60;5.45;;;35.70;63.80;39.20;97075.00;;;;5024340;28;20271;-85
2023/08/15 12:58:41;;;;;;;5.93;5.45;;;35.60;65.70;39.10;97079.00;;;;5021265;28;20212;-85
2023/08/15 13:01:32;;;;;;;5.95;5.45;;;35.80;64.80;35.20;97076.00;;;;5020445;28;20201;-86
2023/08/15 13:04:20;;;;;;;6.32;5.72;;;35.00;63.60;37.60;97076.00;;;;5018621;28;20635;-85
2023/08/15 13:07:09;;;;;;;6.47;5.88;;;34.60;66.70;38.70;97081.00;;;;5018013;28;20221;-85
2023/08/15 13:09:58;;;;;;;7.95;5.47;;;;;39.50;97072.00;;;;5017513;28;20205;-84
2023/08/15 13:12:47;;;;;;;6.97;6.25;;;35.10;68.50;39.80;97071.00;;;;5023250;28;20682;-83
2023/08/15 13:15:36;;;;;;;6.82;5.78;;;35.50;69.90;40.00;97066.00;;;;5017344;28;20229;-84
2023/08/15 13:18:26;;;;;;;6.07;5.57;;;35.80;66.10;40.10;97071.00;;;;5018850;28;20208;-84
2023/08/15 13:21:15;;;;;;;7.53;5.75;;;;;40.00;97071.00;;;;5028115;28;20201;-85
2023/08/15 13:24:05;;;;;;;5.95;5.32;;;36.10;64.90;39.40;97071.00;;;;5016852;28;20201;-83
2023/08/15 13:26:53;;;;;;;6.65;5.68;;;36.20;63.20;40.00;97071.00;;;;5024371;28;20228;-85
2023/08/15 13:29:42;;;;;;;6.18;5.68;;;36.30;65.70;40.30;97060.00;;;;5024110;28;20259;-83
2023/08/15 13:32:32;;;;;;;6.15;5.68;;;36.50;66.00;40.80;97050.00;;;;5016901;28;20692;-83
2023/08/15 13:35:22;;;;;;;5.95;5.45;;;36.70;65.70;41.60;97054.00;;;;5023725;28;20252;-84
2023/08/15 13:38:11;;;;;;;6.80;5.78;;;37.00;65.40;41.10;97045.00;;;;5013090;28;20213;-83
2023/08/15 13:41:00;;;;;;;5.90;5.50;;;37.30;65.10;40.70;97053.00;;;;5017278;28;20593;-83
2023/08/15 13:43:49;;;;;;;6.07;5.57;;;;;40.40;97053.00;;;;5024865;28;20205;-84